createdAt,value
2022-08-08T00:02:03.937Z,2.25
2022-08-08T00:04:49.476Z,2.00
2022-08-08T00:07:57.384Z,1.98
2022-08-08T00:10:46.401Z,2.10
2022-08-08T00:14:17.117Z,1.98
2022-08-08T00:17:02.418Z,2.00
2022-08-08T00:20:04.419Z,2.25
2022-08-08T00:23:00.400Z,2.20
2022-08-08T00:25:45.169Z,2.00
2022-08-08T00:28:39.414Z,2.53
2022-08-08T00:32:15.459Z,2.30
2022-08-08T00:35:34.317Z,2.55
2022-08-08T00:38:30.944Z,2.20
2022-08-08T00:41:55.090Z,2.58
2022-08-08T00:44:45.394Z,2.10
2022-08-08T00:47:36.900Z,2.10
2022-08-08T00:50:27.479Z,1.92
2022-08-08T00:53:25.417Z,2.75
2022-08-08T00:56:12.901Z,2.10
2022-08-08T00:59:07.453Z,2.50
2022-08-08T01:02:01.409Z,2.00
2022-08-08T01:04:57.503Z,1.90
2022-08-08T01:07:55.724Z,1.75
2022-08-08T01:10:52.467Z,1.63
2022-08-08T01:13:58.336Z,2.60
2022-08-08T01:16:46.614Z,1.67
2022-08-08T01:19:42.290Z,1.70
2022-08-08T01:22:35.754Z,1.70
2022-08-08T01:25:40.082Z,2.17
2022-08-08T01:28:47.208Z,2.58
2022-08-08T01:32:06.855Z,3.70
2022-08-08T01:34:54.412Z,3.60
2022-08-08T01:37:56.253Z,3.30
2022-08-08T01:41:18.427Z,2.45
2022-08-08T01:44:16.452Z,2.72
2022-08-08T01:48:16.765Z,1.88
2022-08-08T01:50:54.437Z,2.38
2022-08-08T01:55:17.675Z,2.05
2022-08-08T01:57:02.419Z,2.55
2022-08-08T02:00:02.437Z,2.42
2022-08-08T02:02:59.428Z,2.60
2022-08-08T02:06:03.430Z,2.78
2022-08-08T02:09:17.497Z,2.75
2022-08-08T02:12:00.526Z,2.78
2022-08-08T02:14:58.871Z,2.30
2022-08-08T02:17:47.467Z,2.22
2022-08-08T02:20:59.900Z,2.30
2022-08-08T02:27:15.445Z,2.58
2022-08-08T02:30:24.807Z,2.10
2022-08-08T02:33:08.479Z,2.55
2022-08-08T02:36:05.306Z,2.75
2022-08-08T02:39:40.795Z,1.98
2022-08-08T02:42:07.889Z,2.70
2022-08-08T02:45:21.567Z,3.83
2022-08-08T02:48:42.626Z,2.38
2022-08-08T02:51:56.429Z,2.35
2022-08-08T02:55:10.599Z,2.42
2022-08-08T02:58:15.122Z,2.40
2022-08-08T03:01:14.766Z,2.97
2022-08-08T03:05:04.803Z,2.53
2022-08-08T03:07:15.430Z,2.60
2022-08-08T03:10:32.782Z,2.28
2022-08-08T03:15:57.990Z,2.55
2022-08-08T03:16:43.341Z,3.65
2022-08-08T03:19:34.452Z,3.55
2022-08-08T03:22:38.792Z,3.30
2022-08-08T03:25:20.588Z,3.60
2022-08-08T03:28:20.433Z,3.53
2022-08-08T03:31:24.982Z,3.53
2022-08-08T03:34:14.140Z,2.75
2022-08-08T03:36:48.536Z,2.72
2022-08-08T03:39:36.337Z,3.17
2022-08-08T03:42:30.359Z,3.35
2022-08-08T03:46:05.674Z,2.78
2022-08-08T03:49:08.881Z,2.53
2022-08-08T03:51:47.104Z,2.38
2022-08-08T03:54:40.606Z,3.20
2022-08-08T03:58:30.142Z,2.83
2022-08-08T04:00:25.980Z,3.00
2022-08-08T04:03:11.483Z,3.80
2022-08-08T04:05:59.456Z,4.32
2022-08-08T04:08:36.543Z,3.53
2022-08-08T04:11:25.570Z,3.00
2022-08-08T04:14:03.387Z,3.65
2022-08-08T04:17:15.584Z,3.22
2022-08-08T04:20:04.912Z,4.05
2022-08-08T04:22:45.544Z,3.60
2022-08-08T04:25:39.459Z,3.92
2022-08-08T04:28:37.343Z,3.88
2022-08-08T04:31:56.639Z,4.53
2022-08-08T04:34:22.476Z,3.22
2022-08-08T04:37:15.476Z,2.90
2022-08-08T04:40:07.006Z,2.70
2022-08-08T04:42:56.973Z,3.00
2022-08-08T04:45:33.609Z,2.55
2022-08-08T04:48:22.053Z,3.45
2022-08-08T04:50:56.458Z,3.38
2022-08-08T04:54:37.202Z,3.10
2022-08-08T04:56:45.464Z,2.90
2022-08-08T04:59:33.487Z,3.05
2022-08-08T05:02:20.059Z,2.88
2022-08-08T05:05:19.930Z,3.67
2022-08-08T05:07:54.477Z,2.78
2022-08-08T05:10:44.487Z,2.88
2022-08-08T05:13:32.523Z,2.65
2022-08-08T05:16:51.535Z,2.25
2022-08-08T05:20:11.950Z,2.83
2022-08-08T05:22:34.511Z,2.15
2022-08-08T05:25:08.616Z,2.70
2022-08-08T05:27:55.506Z,2.47
2022-08-08T05:30:37.486Z,2.70
2022-08-08T05:33:26.523Z,2.42
2022-08-08T05:36:28.266Z,2.78
2022-08-08T05:39:24.563Z,2.70
2022-08-08T05:42:16.516Z,2.53
2022-08-08T05:44:54.545Z,2.83
2022-08-08T05:47:59.977Z,2.45
2022-08-08T05:54:24.229Z,1.98
2022-08-08T05:56:54.496Z,2.08
2022-08-08T05:59:53.477Z,2.25
2022-08-08T06:03:00.570Z,2.25
2022-08-08T06:06:08.550Z,1.92
2022-08-08T06:09:00.415Z,1.95
2022-08-08T06:12:00.529Z,1.90
2022-08-08T06:14:48.956Z,2.03
2022-08-08T06:17:50.754Z,2.42
2022-08-08T06:20:46.515Z,2.40
2022-08-08T06:23:53.281Z,1.83
2022-08-08T06:26:44.156Z,1.80
2022-08-08T06:30:00.879Z,1.83
2022-08-08T06:32:47.567Z,2.22
2022-08-08T06:36:08.560Z,2.00
2022-08-08T06:38:56.545Z,2.10
2022-08-08T06:41:49.102Z,1.98
2022-08-08T06:44:31.537Z,1.52
2022-08-08T06:47:12.600Z,2.30
2022-08-08T06:49:57.065Z,1.70
2022-08-08T06:52:37.601Z,2.10
2022-08-08T06:55:24.564Z,2.05
2022-08-08T06:58:08.620Z,2.60
2022-08-08T07:00:51.561Z,2.55
2022-08-08T07:04:39.499Z,2.00
2022-08-08T07:07:10.677Z,1.90
2022-08-08T07:10:12.762Z,2.17
2022-08-08T07:12:55.564Z,2.00
2022-08-08T07:16:04.782Z,1.60
2022-08-08T07:19:07.584Z,2.05
2022-08-08T07:22:02.060Z,2.03
2022-08-08T07:24:56.677Z,1.95
2022-08-08T07:28:00.756Z,2.35
2022-08-08T07:30:43.590Z,1.65
2022-08-08T07:33:37.614Z,1.65
2022-08-08T07:36:20.578Z,1.80
2022-08-08T07:39:01.756Z,2.10
2022-08-08T07:42:04.410Z,1.70
2022-08-08T07:44:48.761Z,1.83
2022-08-08T07:47:38.989Z,2.42
2022-08-08T07:50:23.338Z,2.05
2022-08-08T07:54:01.870Z,2.10
2022-08-08T07:56:35.378Z,2.15
2022-08-08T07:59:29.558Z,2.10
2022-08-08T08:02:35.397Z,2.17
2022-08-08T08:08:09.562Z,1.98
2022-08-08T08:10:51.599Z,1.95
2022-08-08T08:14:07.646Z,2.75
2022-08-08T08:16:58.597Z,1.92
2022-08-08T08:19:46.586Z,1.90
2022-08-08T08:22:44.578Z,2.00
2022-08-08T08:25:43.156Z,1.85
2022-08-08T08:28:24.116Z,1.75
2022-08-08T08:31:13.577Z,2.17
2022-08-08T08:33:59.565Z,1.95
2022-08-08T08:36:51.467Z,2.20
2022-08-08T08:39:39.076Z,2.08
2022-08-08T08:42:37.611Z,2.15
2022-08-08T08:45:22.907Z,2.13
2022-08-08T08:48:16.487Z,2.10
2022-08-08T08:50:56.716Z,2.03
2022-08-08T08:53:59.073Z,2.10
2022-08-08T08:56:40.615Z,1.98
2022-08-08T08:59:59.349Z,1.92
2022-08-08T09:02:44.611Z,1.90
2022-08-08T09:05:29.000Z,1.77
2022-08-08T09:08:30.623Z,1.60
2022-08-08T09:11:08.742Z,1.60
2022-08-08T09:13:56.621Z,1.67
2022-08-08T09:16:32.687Z,1.60
2022-08-08T09:21:54.049Z,1.70
2022-08-08T09:22:26.194Z,1.85
2022-08-08T09:25:07.603Z,1.73
2022-08-08T09:27:57.691Z,1.38
2022-08-08T09:30:33.746Z,1.70
2022-08-08T09:34:15.414Z,1.58
2022-08-08T09:36:35.986Z,1.77
2022-08-08T09:39:33.617Z,1.63
2022-08-08T09:42:29.632Z,1.55
2022-08-08T09:45:54.611Z,1.75
2022-08-08T09:48:42.505Z,1.95
2022-08-08T09:51:17.677Z,2.10
2022-08-08T09:54:15.275Z,2.00
2022-08-08T09:56:54.798Z,1.70
2022-08-08T10:00:08.073Z,1.55
2022-08-08T10:02:45.705Z,2.78
2022-08-08T10:05:42.638Z,1.83
2022-08-08T10:08:30.463Z,1.83
2022-08-08T10:12:26.037Z,1.80
2022-08-08T10:14:28.545Z,2.55
2022-08-08T10:17:56.719Z,1.77
2022-08-08T10:20:18.084Z,1.80
2022-08-08T10:23:07.638Z,2.05
2022-08-08T10:25:57.093Z,2.13
2022-08-08T10:28:45.639Z,1.98
2022-08-08T10:31:55.499Z,1.90
2022-08-08T10:34:58.874Z,1.90
2022-08-08T10:37:47.659Z,1.92
2022-08-08T10:40:38.779Z,1.65
2022-08-08T10:43:22.935Z,2.05
2022-08-08T10:46:29.986Z,1.90
2022-08-08T10:49:11.994Z,2.30
2022-08-08T10:52:30.835Z,2.10
2022-08-08T10:55:40.536Z,2.13
2022-08-08T10:58:29.680Z,1.88
2022-08-08T11:01:17.695Z,2.17
2022-08-08T11:04:01.931Z,2.47
2022-08-08T11:06:56.701Z,2.08
2022-08-08T11:09:53.665Z,2.10
2022-08-08T11:12:28.793Z,2.20
2022-08-08T11:15:19.673Z,2.60
2022-08-08T11:18:04.729Z,2.15
2022-08-08T11:20:55.671Z,2.30
2022-08-08T11:23:35.023Z,2.33
2022-08-08T11:26:28.040Z,2.70
2022-08-08T11:29:15.805Z,2.50
2022-08-08T11:32:10.659Z,2.10
2022-08-08T11:35:35.202Z,2.22
2022-08-08T11:38:39.113Z,1.90
2022-08-08T11:41:01.687Z,2.08
2022-08-08T11:43:58.390Z,2.25
2022-08-08T11:46:48.378Z,2.40
2022-08-08T11:49:27.682Z,2.75
2022-08-08T11:52:18.269Z,2.00
2022-08-08T11:55:06.054Z,3.67
2022-08-08T11:58:00.427Z,4.78
2022-08-08T12:00:37.740Z,2.45
2022-08-08T12:03:34.769Z,2.20
2022-08-08T12:06:22.290Z,1.95
2022-08-08T12:09:17.416Z,2.40
2022-08-08T12:11:52.773Z,1.92
2022-08-08T12:14:39.691Z,1.80
2022-08-08T12:17:14.756Z,1.90
2022-08-08T12:20:03.759Z,1.90
2022-08-08T12:22:45.662Z,1.95
2022-08-08T12:25:33.705Z,1.90
2022-08-08T12:28:36.708Z,2.15
2022-08-08T12:31:53.778Z,1.70
2022-08-08T12:34:43.916Z,1.98
2022-08-08T12:37:40.109Z,2.38
2022-08-08T12:40:24.921Z,1.95
2022-08-08T12:43:05.714Z,2.28
2022-08-08T12:45:57.888Z,1.90
2022-08-08T12:48:50.572Z,3.47
2022-08-08T12:52:00.272Z,4.00
2022-08-08T12:54:47.466Z,3.33
2022-08-08T12:57:49.590Z,2.15
2022-08-08T13:00:34.009Z,2.40
2022-08-08T13:03:36.732Z,3.60
2022-08-08T13:06:14.525Z,2.05
2022-08-08T13:09:05.736Z,2.00
2022-08-08T13:12:24.737Z,2.22
2022-08-08T13:14:53.322Z,1.58
2022-08-08T13:18:08.815Z,2.95
2022-08-08T13:20:35.720Z,3.20
2022-08-08T13:23:41.697Z,3.15
2022-08-08T13:26:29.754Z,3.15
2022-08-08T13:29:25.733Z,2.78
2022-08-08T13:32:25.830Z,2.00
2022-08-08T13:35:11.720Z,1.90
2022-08-08T13:38:13.263Z,1.83
2022-08-08T13:40:55.811Z,4.18
2022-08-08T13:43:51.196Z,3.97
2022-08-08T13:46:38.744Z,2.40
2022-08-08T13:50:35.545Z,2.30
2022-08-08T13:52:46.705Z,2.80
2022-08-08T13:55:36.270Z,2.72
2022-08-08T13:58:17.291Z,2.30
2022-08-08T14:01:41.935Z,2.53
2022-08-08T14:04:34.788Z,2.25
2022-08-08T14:07:33.739Z,3.30
2022-08-08T14:10:36.716Z,2.42
2022-08-08T14:13:33.225Z,3.50
2022-08-08T14:16:28.745Z,2.13
2022-08-08T14:19:55.706Z,2.17
2022-08-08T14:22:32.912Z,2.47
2022-08-08T14:25:22.688Z,2.28
2022-08-08T14:28:13.752Z,3.60
2022-08-08T14:30:55.386Z,1.90
2022-08-08T14:33:36.808Z,2.38
2022-08-08T14:36:24.745Z,2.42
2022-08-08T14:39:02.235Z,2.63
2022-08-08T14:41:59.760Z,2.42
2022-08-08T14:44:35.584Z,2.85
2022-08-08T14:47:30.274Z,2.83
2022-08-08T14:50:16.036Z,2.63
2022-08-08T14:53:14.233Z,3.40
2022-08-08T14:55:48.705Z,3.10
2022-08-08T14:58:49.772Z,2.58
2022-08-08T15:01:27.849Z,2.72
2022-08-08T15:04:26.313Z,19.40
2022-08-08T15:07:00.292Z,6.72
2022-08-08T15:09:51.841Z,7.93
2022-08-08T15:12:34.948Z,18.27
2022-08-08T15:16:03.166Z,2.97
2022-08-08T15:18:19.702Z,2.38
2022-08-08T15:21:07.789Z,2.28
2022-08-08T15:23:41.515Z,2.60
2022-08-08T15:26:30.785Z,2.25
2022-08-08T15:29:04.321Z,2.33
2022-08-08T15:32:03.434Z,2.60
2022-08-08T15:34:48.377Z,3.15
2022-08-08T15:37:36.768Z,2.70
2022-08-08T15:40:18.785Z,3.20
2022-08-08T15:42:59.843Z,2.13
2022-08-08T15:45:40.806Z,2.80
2022-08-08T15:48:24.842Z,2.50
2022-08-08T15:51:15.644Z,2.28
2022-08-08T15:53:56.780Z,2.55
2022-08-08T15:56:51.080Z,2.30
2022-08-08T16:00:25.307Z,2.60
2022-08-08T16:02:43.709Z,2.47
2022-08-08T16:05:35.587Z,2.50
2022-08-08T16:08:20.939Z,2.55
2022-08-08T16:13:07.457Z,2.58
2022-08-08T16:14:01.874Z,2.63
2022-08-08T16:16:50.517Z,2.65
2022-08-08T16:19:57.178Z,2.78
2022-08-08T16:22:49.271Z,2.63
2022-08-08T16:25:46.163Z,2.50
2022-08-08T16:28:36.667Z,2.20
2022-08-08T16:31:30.806Z,2.80
2022-08-08T16:34:19.827Z,2.25
2022-08-08T16:36:54.908Z,2.58
2022-08-08T16:42:44.381Z,2.45
2022-08-08T16:46:37.434Z,2.25
2022-08-08T16:48:57.879Z,2.20
2022-08-08T16:55:07.192Z,2.63
2022-08-08T16:57:03.930Z,3.20
2022-08-08T17:00:08.633Z,3.03
2022-08-08T17:02:44.549Z,3.25
2022-08-08T17:05:44.536Z,3.30
2022-08-08T17:08:25.963Z,2.70
2022-08-08T17:11:19.992Z,2.53
2022-08-08T17:14:17.740Z,2.55
2022-08-08T17:16:58.410Z,3.08
2022-08-08T17:19:44.975Z,3.10
2022-08-08T17:22:39.203Z,2.50
2022-08-08T17:25:52.299Z,2.20
2022-08-08T17:28:35.128Z,3.20
2022-08-08T17:31:44.953Z,2.87
2022-08-08T17:34:53.070Z,3.13
2022-08-08T17:37:35.990Z,2.90
2022-08-08T17:40:29.986Z,2.50
2022-08-08T17:43:17.009Z,3.10
2022-08-08T17:45:57.981Z,2.60
2022-08-08T17:48:47.843Z,2.97
2022-08-08T17:51:28.998Z,3.05
2022-08-08T17:54:22.459Z,2.72
2022-08-08T17:57:01.141Z,3.00
2022-08-08T17:59:48.543Z,2.97
2022-08-08T18:02:34.173Z,2.88
2022-08-08T18:05:23.979Z,4.95
2022-08-08T18:08:05.022Z,3.72
2022-08-08T18:10:59.019Z,3.85
2022-08-08T18:13:46.421Z,4.28
2022-08-08T18:16:31.199Z,3.92
2022-08-08T18:19:12.993Z,3.47
2022-08-08T18:22:05.070Z,4.40
2022-08-08T18:24:38.563Z,3.13
2022-08-08T18:30:12.988Z,3.17
2022-08-08T18:32:54.079Z,3.75
2022-08-08T18:35:48.564Z,3.53
2022-08-08T18:38:36.028Z,4.07
2022-08-08T18:41:09.577Z,3.50
2022-08-08T18:43:58.017Z,4.15
2022-08-08T18:46:56.401Z,3.20
2022-08-08T18:49:57.879Z,4.57
2022-08-08T18:52:36.902Z,4.05
2022-08-08T18:55:28.011Z,4.43
2022-08-08T18:58:09.089Z,2.38
2022-08-08T19:00:57.038Z,3.90
2022-08-08T19:04:05.221Z,3.20
2022-08-08T19:06:46.984Z,3.47
2022-08-08T19:09:48.918Z,3.13
2022-08-08T19:12:26.387Z,3.20
2022-08-08T19:15:08.043Z,3.22
2022-08-08T19:17:48.328Z,4.03
2022-08-08T19:20:46.667Z,4.18
2022-08-08T19:23:28.089Z,4.10
2022-08-08T19:26:29.513Z,3.47
2022-08-08T19:29:09.036Z,4.22
2022-08-08T19:31:46.856Z,4.03
2022-08-08T19:34:41.220Z,4.28
2022-08-08T19:37:16.844Z,5.78
2022-08-08T19:40:04.045Z,7.55
2022-08-08T19:45:58.477Z,7.55
2022-08-08T19:48:28.833Z,7.13
2022-08-08T19:51:25.153Z,6.32
2022-08-08T19:54:28.028Z,5.50
2022-08-08T19:57:16.083Z,5.10
2022-08-08T19:59:57.043Z,4.60
2022-08-08T20:02:44.054Z,4.82
2022-08-08T20:06:14.085Z,5.75
2022-08-08T20:08:48.195Z,6.15
2022-08-08T20:11:36.170Z,8.35
2022-08-08T20:14:34.037Z,10.27
2022-08-08T20:17:26.834Z,9.80
2022-08-08T20:20:02.133Z,9.23
2022-08-08T20:22:52.683Z,9.68
2022-08-08T20:25:31.594Z,7.93
2022-08-08T20:28:22.402Z,5.80
2022-08-08T20:31:05.034Z,5.57
2022-08-08T20:34:30.045Z,5.10
2022-08-08T20:37:14.056Z,5.82
2022-08-08T20:39:55.098Z,4.65
2022-08-08T20:42:44.045Z,4.75
2022-08-08T20:45:19.151Z,4.37
2022-08-08T20:48:26.180Z,4.72
2022-08-08T20:51:02.253Z,4.57
2022-08-08T20:54:00.757Z,5.05
2022-08-08T20:57:04.531Z,4.45
2022-08-08T20:59:59.161Z,4.97
2022-08-08T21:02:52.535Z,4.57
2022-08-08T21:05:31.685Z,4.43
2022-08-08T21:08:37.167Z,4.63
2022-08-08T21:11:13.153Z,4.38
2022-08-08T21:14:06.197Z,5.45
2022-08-08T21:16:41.149Z,3.92
2022-08-08T21:19:44.491Z,5.10
2022-08-08T21:22:21.127Z,5.03
2022-08-08T21:25:17.144Z,5.28
2022-08-08T21:28:13.295Z,6.15
2022-08-08T21:30:58.098Z,4.90
2022-08-08T21:33:32.155Z,4.93
2022-08-08T21:36:28.242Z,4.60
2022-08-08T21:39:10.103Z,4.50
2022-08-08T21:41:59.349Z,5.05
2022-08-08T21:44:58.010Z,6.05
2022-08-08T21:50:41.095Z,5.32
2022-08-08T21:54:32.112Z,5.47
2022-08-08T21:56:33.870Z,4.53
2022-08-08T21:59:16.114Z,5.00
2022-08-08T22:02:01.071Z,5.05
2022-08-08T22:04:44.097Z,5.25
2022-08-08T22:07:26.023Z,6.05
2022-08-08T22:10:18.481Z,4.25
2022-08-08T22:16:03.075Z,5.27
2022-08-08T22:18:44.234Z,5.60
2022-08-08T22:21:25.095Z,5.25
2022-08-08T22:24:15.188Z,4.85
2022-08-08T22:27:01.561Z,4.85
2022-08-08T22:30:01.564Z,4.57
2022-08-08T22:32:44.107Z,4.30
2022-08-08T22:36:04.412Z,4.60
2022-08-08T22:38:29.805Z,4.72
2022-08-08T22:41:16.419Z,5.10
2022-08-08T22:44:02.530Z,4.70
2022-08-08T22:46:45.921Z,4.47
2022-08-08T22:49:40.607Z,4.07
2022-08-08T22:55:22.135Z,4.38
2022-08-08T22:57:57.179Z,4.57
2022-08-08T23:00:44.182Z,4.47
2022-08-08T23:03:52.902Z,5.05
2022-08-08T23:06:35.104Z,4.95
2022-08-08T23:09:10.254Z,3.95
2022-08-08T23:12:27.571Z,4.40
2022-08-08T23:14:59.908Z,4.30
2022-08-08T23:18:07.133Z,4.15
2022-08-08T23:21:01.117Z,5.15
2022-08-08T23:23:56.478Z,4.43
2022-08-08T23:26:31.196Z,5.03
2022-08-08T23:29:18.146Z,4.53
2022-08-08T23:31:52.223Z,4.68
2022-08-08T23:34:39.146Z,4.68
2022-08-08T23:37:24.593Z,4.15
2022-08-08T23:40:12.197Z,4.15
2022-08-08T23:42:53.134Z,4.53
2022-08-08T23:49:05.627Z,4.63
2022-08-08T23:49:08.352Z,4.47
2022-08-08T23:52:04.047Z,4.22
2022-08-08T23:55:07.272Z,4.57
2022-08-08T23:57:53.277Z,4.35
